createdAt,value
2018-09-20T00:02:24.814Z,20.50
2018-09-20T00:04:53.471Z,20.50
2018-09-20T00:07:21.852Z,20.50
2018-09-20T00:09:50.339Z,20.40
2018-09-20T00:12:18.713Z,20.40
2018-09-20T00:14:47.182Z,20.40
2018-09-20T00:17:15.660Z,20.30
2018-09-20T00:19:44.128Z,20.30
2018-09-20T00:22:12.569Z,20.30
2018-09-20T00:24:41.052Z,20.30
2018-09-20T00:27:09.434Z,20.30
2018-09-20T00:29:37.928Z,20.20
2018-09-20T00:32:06.370Z,20.20
2018-09-20T00:34:34.788Z,20.20
2018-09-20T00:37:04.119Z,20.20
2018-09-20T00:39:33.448Z,20.10
2018-09-20T00:42:01.927Z,20.10
2018-09-20T00:44:30.339Z,20.00
2018-09-20T00:46:58.768Z,20.00
2018-09-20T00:49:27.184Z,20.00
2018-09-20T00:51:56.561Z,19.90
2018-09-20T00:54:25.675Z,19.90
2018-09-20T00:56:54.710Z,19.90
2018-09-20T00:59:23.157Z,19.90
2018-09-20T01:01:51.606Z,19.90
2018-09-20T01:04:19.983Z,19.80
2018-09-20T01:06:48.400Z,19.80
2018-09-20T01:09:17.407Z,19.80
2018-09-20T01:11:45.871Z,19.80
2018-09-20T01:14:14.253Z,19.70
2018-09-20T01:16:42.673Z,19.70
2018-09-20T01:19:12.035Z,19.60
2018-09-20T01:21:41.351Z,19.60
2018-09-20T01:24:09.737Z,19.50
2018-09-20T01:26:38.187Z,19.40
2018-09-20T01:29:06.571Z,19.40
2018-09-20T01:31:35.082Z,19.40
2018-09-20T01:34:03.744Z,19.30
2018-09-20T01:36:32.216Z,19.30
2018-09-20T01:39:00.630Z,19.30
2018-09-20T01:41:29.543Z,19.30
2018-09-20T01:43:57.928Z,19.20
2018-09-20T01:46:26.383Z,19.20
2018-09-20T01:48:54.744Z,19.20
2018-09-20T01:51:23.946Z,19.20
2018-09-20T01:53:52.421Z,19.10
2018-09-20T01:56:20.844Z,19.10
2018-09-20T01:58:49.326Z,19.10
2018-09-20T02:01:18.625Z,19.00
2018-09-20T02:03:47.969Z,19.00
2018-09-20T02:06:16.467Z,19.10
2018-09-20T02:08:45.664Z,19.10
2018-09-20T02:11:14.164Z,19.00
2018-09-20T02:13:43.144Z,19.00
2018-09-20T02:16:11.597Z,18.90
2018-09-20T02:18:40.015Z,18.90
2018-09-20T02:21:08.777Z,18.80
2018-09-20T02:23:37.152Z,18.80
2018-09-20T02:26:05.605Z,18.70
2018-09-20T02:28:34.945Z,18.70
2018-09-20T02:31:03.413Z,18.70
2018-09-20T02:33:31.816Z,18.70
2018-09-20T02:36:00.281Z,18.70
2018-09-20T02:38:28.717Z,18.70
2018-09-20T02:40:57.280Z,18.70
2018-09-20T02:43:25.747Z,18.70
2018-09-20T02:45:54.302Z,18.60
2018-09-20T02:48:22.749Z,18.60
2018-09-20T02:50:51.800Z,18.60
2018-09-20T02:53:20.749Z,18.60
2018-09-20T02:55:49.200Z,18.60
2018-09-20T02:58:17.890Z,18.60
2018-09-20T03:00:46.375Z,18.50
2018-09-20T03:03:14.825Z,18.50
2018-09-20T03:05:43.270Z,18.40
2018-09-20T03:08:11.711Z,18.40
2018-09-20T03:13:33.899Z,18.30
2018-09-20T03:16:03.200Z,18.30
2018-09-20T03:18:31.621Z,18.30
2018-09-20T03:21:00.116Z,18.30
2018-09-20T03:23:28.625Z,18.30
2018-09-20T03:25:57.077Z,18.20
2018-09-20T03:28:26.195Z,18.20
2018-09-20T03:30:55.073Z,18.20
2018-09-20T03:33:23.537Z,18.20
2018-09-20T03:35:51.975Z,18.20
2018-09-20T03:38:20.341Z,18.10
2018-09-20T03:40:48.782Z,18.10
2018-09-20T03:43:17.183Z,18.10
2018-09-20T03:45:45.596Z,18.10
2018-09-20T03:48:14.922Z,18.00
2018-09-20T03:50:43.871Z,18.00
2018-09-20T03:53:12.490Z,18.00
2018-09-20T03:55:40.936Z,18.00
2018-09-20T03:58:09.391Z,18.00
2018-09-20T04:00:38.247Z,18.00
2018-09-20T04:03:06.931Z,18.00
2018-09-20T04:05:35.334Z,18.00
2018-09-20T04:08:04.374Z,17.90
2018-09-20T04:10:33.742Z,17.90
2018-09-20T04:13:02.240Z,17.90
2018-09-20T04:15:30.633Z,17.90
2018-09-20T04:17:58.980Z,17.80
2018-09-20T04:20:27.329Z,17.80
2018-09-20T04:22:55.729Z,17.80
2018-09-20T04:25:24.433Z,17.80
2018-09-20T04:27:53.101Z,17.90
2018-09-20T04:30:21.417Z,17.90
2018-09-20T04:32:49.780Z,17.90
2018-09-20T04:35:20.233Z,17.80
2018-09-20T04:37:51.452Z,17.80
2018-09-20T04:40:19.919Z,17.80
2018-09-20T04:42:48.332Z,17.80
2018-09-20T04:45:16.760Z,17.70
2018-09-20T04:47:45.782Z,17.70
2018-09-20T04:50:14.319Z,17.70
2018-09-20T04:52:42.734Z,17.60
2018-09-20T04:55:11.238Z,17.50
2018-09-20T04:57:40.269Z,17.50
2018-09-20T05:00:08.692Z,17.50
2018-09-20T05:02:37.081Z,17.50
2018-09-20T05:05:11.785Z,17.50
2018-09-20T05:07:40.497Z,17.40
2018-09-20T05:10:09.154Z,17.40
2018-09-20T05:12:37.964Z,17.40
2018-09-20T05:15:06.405Z,17.40
2018-09-20T05:17:35.056Z,17.30
2018-09-20T05:20:03.613Z,17.30
2018-09-20T05:22:32.017Z,17.30
2018-09-20T05:30:30.503Z,17.40
2018-09-20T05:32:59.004Z,17.40
2018-09-20T05:35:28.816Z,17.40
2018-09-20T05:37:57.312Z,17.40
2018-09-20T05:40:25.798Z,17.40
2018-09-20T05:42:54.204Z,17.40
2018-09-20T05:45:22.841Z,17.40
2018-09-20T05:47:51.283Z,17.40
2018-09-20T05:50:19.724Z,17.30
2018-09-20T05:52:48.130Z,17.30
2018-09-20T05:55:16.533Z,17.30
2018-09-20T05:57:45.079Z,17.20
2018-09-20T06:00:13.536Z,17.20
2018-09-20T06:02:42.028Z,17.20
2018-09-20T06:05:15.756Z,17.10
2018-09-20T06:07:45.291Z,17.10
2018-09-20T06:10:13.719Z,17.20
2018-09-20T06:12:42.069Z,17.20
2018-09-20T06:15:10.524Z,17.20
2018-09-20T06:17:38.908Z,17.10
2018-09-20T06:20:07.629Z,17.20
2018-09-20T06:22:36.125Z,17.10
2018-09-20T06:25:04.673Z,17.10
2018-09-20T06:27:33.167Z,17.10
2018-09-20T06:30:01.561Z,17.10
2018-09-20T06:32:31.106Z,17.10
2018-09-20T06:35:01.889Z,17.10
2018-09-20T06:37:30.315Z,17.10
2018-09-20T06:39:58.898Z,17.10
2018-09-20T06:42:29.081Z,17.10
2018-09-20T06:44:57.577Z,17.10
2018-09-20T06:47:26.688Z,17.20
2018-09-20T06:49:55.080Z,17.30
2018-09-20T06:52:23.489Z,17.40
2018-09-20T06:54:51.992Z,17.50
2018-09-20T06:57:20.412Z,17.50
2018-09-20T06:59:48.873Z,17.60
2018-09-20T07:02:17.260Z,17.70
2018-09-20T07:04:46.581Z,17.90
2018-09-20T07:07:15.022Z,18.00
2018-09-20T07:09:43.502Z,18.20
2018-09-20T07:12:11.931Z,18.30
2018-09-20T07:14:40.394Z,18.50
2018-09-20T07:17:08.828Z,18.60
2018-09-20T07:19:37.249Z,18.80
2018-09-20T07:22:06.482Z,18.90
2018-09-20T07:24:34.884Z,19.10
2018-09-20T07:27:03.288Z,19.20
2018-09-20T07:29:32.095Z,19.40
2018-09-20T07:32:01.630Z,19.50
2018-09-20T07:34:30.108Z,19.60
2018-09-20T07:36:58.507Z,19.70
2018-09-20T07:39:26.877Z,19.90
2018-09-20T07:41:55.382Z,20.00
2018-09-20T07:44:23.893Z,20.10
2018-09-20T07:46:52.313Z,20.30
2018-09-20T07:49:20.927Z,20.40
2018-09-20T07:51:49.397Z,20.50
2018-09-20T07:54:17.743Z,20.60
2018-09-20T07:56:46.235Z,20.70
2018-09-20T07:59:14.566Z,20.80
2018-09-20T08:01:43.061Z,20.90
2018-09-20T08:04:11.651Z,20.90
2018-09-20T08:06:40.508Z,21.10
2018-09-20T08:09:11.025Z,21.20
2018-09-20T08:11:39.503Z,21.40
2018-09-20T08:14:07.988Z,21.60
2018-09-20T08:16:36.372Z,21.80
2018-09-20T08:19:04.808Z,21.90
2018-09-20T08:21:33.478Z,22.20
2018-09-20T08:24:02.574Z,22.40
2018-09-20T08:26:30.994Z,22.50
2018-09-20T08:28:59.393Z,22.60
2018-09-20T08:31:27.859Z,22.70
2018-09-20T08:33:56.290Z,22.80
2018-09-20T08:36:24.792Z,23.00
2018-09-20T08:38:53.485Z,23.10
2018-09-20T08:41:22.752Z,23.20
2018-09-20T08:43:51.162Z,23.30
2018-09-20T08:46:19.626Z,23.40
2018-09-20T08:48:48.115Z,23.50
2018-09-20T08:51:16.542Z,23.60
2018-09-20T08:53:44.930Z,23.70
2018-09-20T08:56:13.499Z,23.80
2018-09-20T08:58:42.013Z,23.90
2018-09-20T09:01:10.382Z,24.00
2018-09-20T09:03:38.859Z,24.10
2018-09-20T09:06:07.351Z,24.20
2018-09-20T09:08:35.812Z,24.30
2018-09-20T09:11:04.285Z,24.20
2018-09-20T09:13:32.872Z,24.30
2018-09-20T09:16:01.276Z,24.50
2018-09-20T09:18:29.708Z,24.60
2018-09-20T09:20:58.137Z,24.70
2018-09-20T09:23:26.506Z,24.70
2018-09-20T09:25:54.915Z,24.80
2018-09-20T09:28:23.370Z,24.90
2018-09-20T09:30:51.863Z,25.00
2018-09-20T09:33:20.630Z,25.20
2018-09-20T09:35:49.730Z,25.40
2018-09-20T09:38:18.282Z,25.40
2018-09-20T09:40:46.796Z,25.60
2018-09-20T09:43:15.082Z,25.70
2018-09-20T09:45:43.485Z,25.80
2018-09-20T09:48:11.950Z,25.90
2018-09-20T09:50:40.679Z,26.10
2018-09-20T09:53:09.195Z,26.20
2018-09-20T09:55:37.677Z,26.20
2018-09-20T09:58:06.213Z,26.00
2018-09-20T10:00:36.518Z,26.10
2018-09-20T10:03:04.913Z,26.10
2018-09-20T10:05:33.383Z,26.10
2018-09-20T10:08:01.833Z,26.30
2018-09-20T10:10:30.372Z,26.50
2018-09-20T10:12:58.789Z,26.60
2018-09-20T10:15:27.202Z,26.70
2018-09-20T10:17:55.581Z,26.70
2018-09-20T10:20:24.034Z,26.70
2018-09-20T10:22:52.551Z,26.70
2018-09-20T10:25:20.982Z,26.80
2018-09-20T10:27:49.374Z,26.80
2018-09-20T10:30:17.880Z,27.00
2018-09-20T10:32:46.281Z,27.10
2018-09-20T10:35:14.696Z,27.40
2018-09-20T10:37:43.193Z,27.50
2018-09-20T10:40:11.619Z,27.60
2018-09-20T10:42:40.015Z,27.90
2018-09-20T10:45:08.454Z,28.00
2018-09-20T10:47:36.915Z,28.10
2018-09-20T10:50:05.496Z,27.80
2018-09-20T10:52:33.990Z,27.80
2018-09-20T10:55:02.477Z,27.90
2018-09-20T10:57:30.933Z,28.00
2018-09-20T10:59:59.293Z,28.00
2018-09-20T11:02:27.726Z,28.10
2018-09-20T11:04:56.873Z,28.10
2018-09-20T11:07:25.295Z,28.20
2018-09-20T11:09:53.744Z,28.20
2018-09-20T11:12:22.141Z,28.20
2018-09-20T11:14:50.552Z,28.30
2018-09-20T11:17:18.950Z,28.30
2018-09-20T11:19:47.303Z,28.50
2018-09-20T11:22:15.681Z,28.70
2018-09-20T11:24:44.057Z,29.00
2018-09-20T11:27:12.518Z,29.10
2018-09-20T11:29:40.905Z,30.80
2018-09-20T11:32:09.339Z,33.40
2018-09-20T11:34:37.851Z,35.80
2018-09-20T11:37:06.252Z,37.70
2018-09-20T11:39:34.667Z,38.70
2018-09-20T11:42:03.034Z,39.30
2018-09-20T11:44:31.391Z,40.20
2018-09-20T11:46:59.833Z,40.90
2018-09-20T11:49:28.360Z,40.80
2018-09-20T11:51:56.771Z,41.20
2018-09-20T11:54:25.224Z,41.60
2018-09-20T11:56:53.659Z,41.80
2018-09-20T11:59:22.076Z,41.80
2018-09-20T12:01:50.504Z,41.90
2018-09-20T12:04:18.881Z,41.50
2018-09-20T12:06:47.371Z,41.90
2018-09-20T12:09:16.641Z,42.30
2018-09-20T12:11:45.143Z,41.60
2018-09-20T12:14:13.642Z,40.70
2018-09-20T12:16:42.115Z,40.40
2018-09-20T12:19:10.589Z,41.30
2018-09-20T12:21:38.981Z,42.30
2018-09-20T12:24:07.498Z,42.70
2018-09-20T12:26:35.948Z,42.50
2018-09-20T12:29:04.335Z,42.60
2018-09-20T12:31:32.878Z,42.90
2018-09-20T12:34:01.296Z,43.40
2018-09-20T12:36:29.728Z,43.90
2018-09-20T12:38:58.250Z,44.10
2018-09-20T12:41:26.620Z,44.50
2018-09-20T12:43:55.646Z,45.30
2018-09-20T12:46:24.079Z,45.50
2018-09-20T12:48:52.604Z,45.40
2018-09-20T12:51:21.014Z,43.50
2018-09-20T12:53:49.436Z,41.70
2018-09-20T12:56:18.156Z,39.80
2018-09-20T12:58:49.401Z,38.10
2018-09-20T13:01:18.736Z,37.00
2018-09-20T13:03:47.363Z,36.80
2018-09-20T13:06:15.888Z,36.90
2018-09-20T13:08:44.261Z,37.30
2018-09-20T13:11:13.643Z,37.70
2018-09-20T13:13:42.313Z,37.20
2018-09-20T13:16:10.921Z,36.20
2018-09-20T13:18:39.375Z,34.60
2018-09-20T13:21:07.877Z,33.80
2018-09-20T13:23:36.324Z,33.00
2018-09-20T13:26:04.765Z,32.40
2018-09-20T13:28:33.204Z,32.00
2018-09-20T13:31:01.712Z,31.50
2018-09-20T13:33:30.085Z,31.20
2018-09-20T13:35:58.520Z,31.10
2018-09-20T13:38:26.954Z,31.00
2018-09-20T13:40:55.512Z,31.00
2018-09-20T13:43:23.968Z,31.10
2018-09-20T13:45:52.714Z,31.10
2018-09-20T13:48:21.234Z,31.10
2018-09-20T13:50:49.642Z,31.00
2018-09-20T13:53:18.116Z,31.00
2018-09-20T13:55:46.538Z,31.10
2018-09-20T13:58:15.209Z,31.20
2018-09-20T14:00:43.669Z,31.00
2018-09-20T14:03:12.111Z,31.00
2018-09-20T14:05:40.560Z,31.10
2018-09-20T14:08:09.036Z,31.20
2018-09-20T14:10:37.513Z,31.00
2018-09-20T14:13:05.965Z,30.80
2018-09-20T14:15:34.491Z,30.30
2018-09-20T14:18:02.903Z,30.40
2018-09-20T14:20:32.260Z,30.60
2018-09-20T14:23:00.774Z,30.70
2018-09-20T14:25:29.211Z,30.60
2018-09-20T14:27:57.666Z,30.60
2018-09-20T14:30:26.133Z,30.70
2018-09-20T14:32:54.661Z,31.30
2018-09-20T14:35:23.128Z,31.60
2018-09-20T14:37:51.540Z,31.30
2018-09-20T14:40:19.968Z,31.10
2018-09-20T14:42:48.420Z,30.90
2018-09-20T14:45:16.846Z,30.80
2018-09-20T14:47:45.274Z,30.90
2018-09-20T14:50:13.722Z,30.80
2018-09-20T14:52:42.287Z,30.80
2018-09-20T14:55:10.698Z,30.90
2018-09-20T14:57:39.083Z,31.30
2018-09-20T15:00:07.520Z,31.30
2018-09-20T15:02:35.952Z,31.30
2018-09-20T15:05:04.496Z,31.40
2018-09-20T15:07:32.972Z,31.40
2018-09-20T15:10:01.341Z,31.90
2018-09-20T15:12:29.807Z,32.80
2018-09-20T15:14:58.342Z,33.30
2018-09-20T15:17:26.722Z,33.10
2018-09-20T15:19:55.082Z,32.80
2018-09-20T15:22:23.499Z,32.30
2018-09-20T15:24:51.981Z,32.00
2018-09-20T15:27:20.368Z,31.80
2018-09-20T15:29:49.733Z,32.10
2018-09-20T15:32:18.100Z,32.60
2018-09-20T15:34:46.496Z,32.20
2018-09-20T15:37:14.908Z,31.70
2018-09-20T15:39:43.337Z,31.30
2018-09-20T15:42:11.742Z,30.90
2018-09-20T15:44:40.201Z,30.50
2018-09-20T15:47:09.637Z,30.20
2018-09-20T15:49:38.757Z,30.00
2018-09-20T15:52:07.888Z,29.80
2018-09-20T15:54:36.302Z,29.70
2018-09-20T15:57:04.821Z,29.60
2018-09-20T15:59:33.226Z,29.60
2018-09-20T16:02:01.700Z,29.70
2018-09-20T16:04:30.122Z,29.70
2018-09-20T16:06:58.481Z,29.70
2018-09-20T16:09:26.882Z,29.60
2018-09-20T16:11:55.299Z,29.50
2018-09-20T16:14:23.748Z,29.30
2018-09-20T16:16:52.213Z,29.10
2018-09-20T16:19:20.777Z,29.00
2018-09-20T16:21:49.200Z,28.90
2018-09-20T16:24:17.604Z,28.80
2018-09-20T16:26:46.024Z,28.70
2018-09-20T16:29:27.854Z,28.70
2018-09-20T16:34:09.457Z,28.60
2018-09-20T16:36:54.047Z,28.50
2018-09-20T16:39:24.305Z,28.40
2018-09-20T16:41:56.066Z,28.30
2018-09-20T16:44:25.421Z,28.10
2018-09-20T16:46:53.837Z,27.90
2018-09-20T16:49:22.203Z,27.70
2018-09-20T16:51:50.594Z,27.50
2018-09-20T16:54:19.554Z,27.30
2018-09-20T16:56:48.038Z,27.10
2018-09-20T16:59:17.288Z,26.90
2018-09-20T17:01:45.728Z,26.80
2018-09-20T17:04:14.127Z,26.70
2018-09-20T17:06:42.556Z,26.50
2018-09-20T17:09:10.903Z,26.30
2018-09-20T17:11:39.342Z,26.20
2018-09-20T17:14:07.739Z,26.10
2018-09-20T17:16:36.170Z,26.00
2018-09-20T17:19:05.496Z,25.90
2018-09-20T17:21:33.996Z,25.80
2018-09-20T17:24:02.607Z,25.70
2018-09-20T17:26:31.155Z,25.60
2018-09-20T17:28:59.917Z,25.50
2018-09-20T17:31:29.597Z,25.40
2018-09-20T17:33:58.215Z,25.20
2018-09-20T17:36:28.239Z,25.10
2018-09-20T17:38:57.883Z,25.00
2018-09-20T17:41:30.536Z,24.90
2018-09-20T17:44:02.128Z,24.80
2018-09-20T17:46:30.865Z,24.70
2018-09-20T17:48:59.606Z,24.50
2018-09-20T17:51:29.187Z,24.40
2018-09-20T17:54:00.959Z,24.30
2018-09-20T17:56:29.890Z,24.20
2018-09-20T17:58:58.841Z,24.10
2018-09-20T18:01:27.246Z,24.00
2018-09-20T18:03:55.795Z,24.00
2018-09-20T18:06:24.255Z,23.90
2018-09-20T18:08:52.773Z,23.90
2018-09-20T18:11:21.278Z,23.80
2018-09-20T18:13:49.740Z,23.80
2018-09-20T18:16:18.279Z,23.70
2018-09-20T18:18:48.712Z,23.60
2018-09-20T18:21:17.951Z,23.60
2018-09-20T18:23:58.290Z,23.50
2018-09-20T18:26:26.658Z,23.50
2018-09-20T18:28:55.093Z,23.40
2018-09-20T18:31:23.600Z,23.40
2018-09-20T18:33:52.022Z,23.30
2018-09-20T18:36:20.537Z,23.30
2018-09-20T18:38:49.641Z,23.20
2018-09-20T18:41:18.118Z,23.20
2018-09-20T18:43:47.151Z,23.10
2018-09-20T18:46:15.627Z,23.10
2018-09-20T18:48:44.609Z,23.10
2018-09-20T18:51:13.178Z,23.00
2018-09-20T18:53:41.678Z,23.00
2018-09-20T18:56:10.092Z,23.00
2018-09-20T18:58:38.708Z,23.00
2018-09-20T19:01:07.323Z,23.00
2018-09-20T19:03:35.737Z,23.00
2018-09-20T19:06:04.275Z,23.00
2018-09-20T19:08:33.417Z,23.00
2018-09-20T19:11:02.256Z,23.00
2018-09-20T19:13:30.671Z,23.00
2018-09-20T19:15:59.167Z,22.90
2018-09-20T19:18:27.615Z,22.90
2018-09-20T19:20:56.085Z,22.90
2018-09-20T19:23:25.472Z,22.90
2018-09-20T19:25:53.916Z,22.90
2018-09-20T19:28:25.133Z,22.90
2018-09-20T19:31:05.351Z,22.90
2018-09-20T19:33:36.658Z,22.80
2018-09-20T19:36:09.256Z,22.80
2018-09-20T19:38:40.187Z,22.70
2018-09-20T19:41:08.685Z,22.60
2018-09-20T19:43:37.992Z,22.60
2018-09-20T19:46:07.200Z,22.50
2018-09-20T19:48:35.562Z,22.60
2018-09-20T19:51:04.051Z,22.60
2018-09-20T19:53:33.261Z,22.60
2018-09-20T19:56:01.930Z,22.60
2018-09-20T19:58:31.621Z,22.50
2018-09-20T20:01:00.152Z,22.50
2018-09-20T20:03:28.669Z,22.50
2018-09-20T20:05:57.180Z,22.40
2018-09-20T20:08:25.632Z,22.40
2018-09-20T20:10:55.545Z,22.30
2018-09-20T20:13:24.548Z,22.40
2018-09-20T20:15:54.659Z,22.40
2018-09-20T20:18:23.616Z,22.40
2018-09-20T20:20:52.124Z,22.40
2018-09-20T20:23:23.290Z,22.40
2018-09-20T20:28:26.314Z,22.40
2018-09-20T20:30:55.428Z,22.30
2018-09-20T20:33:24.029Z,22.30
2018-09-20T20:35:55.141Z,22.30
2018-09-20T20:38:36.897Z,22.20
2018-09-20T20:41:05.448Z,22.20
2018-09-20T20:43:34.032Z,22.20
2018-09-20T20:46:03.084Z,22.20
2018-09-20T20:48:31.573Z,22.20
2018-09-20T20:51:00.189Z,22.10
2018-09-20T20:53:28.568Z,22.10
2018-09-20T20:55:57.882Z,22.00
2018-09-20T20:58:26.467Z,22.00
2018-09-20T21:00:54.960Z,21.90
2018-09-20T21:03:23.427Z,21.90
2018-09-20T21:05:51.872Z,21.80
2018-09-20T21:08:20.316Z,21.80
2018-09-20T21:10:48.717Z,21.70
2018-09-20T21:13:17.087Z,21.70
2018-09-20T21:15:46.412Z,21.70
2018-09-20T21:18:14.833Z,21.60
2018-09-20T21:23:29.185Z,21.50
2018-09-20T21:25:58.302Z,21.50
2018-09-20T21:28:26.770Z,21.40
2018-09-20T21:30:55.247Z,21.40
2018-09-20T21:33:23.730Z,21.40
2018-09-20T21:35:52.112Z,21.40
2018-09-20T21:38:20.556Z,21.30
2018-09-20T21:40:49.031Z,21.30
2018-09-20T21:43:17.447Z,21.20
2018-09-20T21:45:45.832Z,21.10
2018-09-20T21:48:14.813Z,21.10
2018-09-20T21:50:43.272Z,21.10
2018-09-20T21:53:12.299Z,21.00
2018-09-20T21:55:40.791Z,20.90
2018-09-20T21:58:09.279Z,20.90
2018-09-20T22:00:37.813Z,20.80
2018-09-20T22:03:06.196Z,20.70
2018-09-20T22:05:35.362Z,20.60
2018-09-20T22:08:03.828Z,20.60
2018-09-20T22:10:32.615Z,20.50
2018-09-20T22:13:01.645Z,20.50
2018-09-20T22:15:30.616Z,20.50
2018-09-20T22:17:59.497Z,20.40
2018-09-20T22:20:29.225Z,20.40
2018-09-20T22:22:58.563Z,20.40
2018-09-20T22:25:26.958Z,20.30
2018-09-20T22:27:55.768Z,20.30
2018-09-20T22:30:25.935Z,20.20
2018-09-20T22:32:54.446Z,20.20
2018-09-20T22:35:22.944Z,20.20
2018-09-20T22:37:51.438Z,20.10
2018-09-20T22:40:19.825Z,20.10
2018-09-20T22:42:48.229Z,20.10
2018-09-20T22:45:16.677Z,20.00
2018-09-20T22:47:45.075Z,20.00
2018-09-20T22:50:13.509Z,20.00
2018-09-20T22:52:41.943Z,20.00
2018-09-20T22:55:10.409Z,20.00
2018-09-20T22:57:38.801Z,20.00
2018-09-20T23:00:07.341Z,20.00
2018-09-20T23:02:35.745Z,19.90
2018-09-20T23:05:04.351Z,19.90
2018-09-20T23:07:32.809Z,19.80
2018-09-20T23:10:01.241Z,19.80
2018-09-20T23:12:30.492Z,19.80
2018-09-20T23:14:58.912Z,19.80
2018-09-20T23:17:28.384Z,19.70
2018-09-20T23:19:56.793Z,19.70
2018-09-20T23:22:27.848Z,19.70
2018-09-20T23:24:56.347Z,19.60
2018-09-20T23:27:24.803Z,19.70
2018-09-20T23:29:53.272Z,19.60
2018-09-20T23:32:21.657Z,19.60
2018-09-20T23:34:50.024Z,19.60
2018-09-20T23:37:18.463Z,19.60
2018-09-20T23:39:46.856Z,19.60
2018-09-20T23:42:15.237Z,19.70
2018-09-20T23:44:44.313Z,19.70
2018-09-20T23:47:12.705Z,19.70
2018-09-20T23:49:41.093Z,19.70
2018-09-20T23:52:09.497Z,19.70
2018-09-20T23:54:38.532Z,19.70
2018-09-20T23:57:07.277Z,19.70
2018-09-20T23:59:35.675Z,19.60
